Eastside, Louisiana
Current Conditions -  °F | °C
As of 12:53 PM on Tuesday 27 Jan 2015 (Local Time) from KMLU Reporting Station
Clear Clear  
Wind Chill: 66°   Ceiling: Unl
Heat Index: 66°   Visibility: 10mi
Dew Point: 39°   Wind: 0mph
Humidity: 37%   Direction: NA
Pressure: 30.14"   Gusts: NA
Location:  32.1631°N, 92.1971°W
Report Text: KMLU 271853Z 00000KT 10SM CLR 19/04 A3014 RMK AO2 SLP204 T01890039
Loading
Personal Weather Stations






























Interactive Weather Map New forecast layout! Learn more

10-Day Weather Forecast

Advertisements
Track Severe Weather on mobile